Time;durP1;ratioP1;P1;durP2;ratioP2;P2;SDS_P1;SDS_P2;PMS_P1;PMS_P2;Temp;Humidity;BMP_temperature;BMP_pressure;BME280_temperature;BME280_humidity;BME280_pressure;Samples;Min_cycle;Max_cycle;Signal;HPM_P1;HPM_P2
2021/04/24 00:01:08;;;;;;;4.75;1.90;;;17.70;78.30;;;;;;4933806;28;96061;-53
2021/04/24 00:03:39;;;;;;;5.55;1.75;;;17.70;78.50;;;;;;4934669;28;95855;-51
2021/04/24 00:06:09;;;;;;;3.83;1.40;;;17.70;78.30;;;;;;4938628;28;95976;-51
2021/04/24 00:08:39;;;;;;;4.15;2.10;;;17.70;78.40;;;;;;4935881;28;95797;-53
2021/04/24 00:11:11;;;;;;;2.40;1.30;;;17.60;78.40;;;;;;4932420;28;95771;-54
2021/04/24 00:13:41;;;;;;;2.95;1.67;;;17.70;78.40;;;;;;4934847;28;101326;-54
2021/04/24 00:16:12;;;;;;;3.13;1.27;;;17.60;78.30;;;;;;4940986;28;98293;-53
2021/04/24 00:18:43;;;;;;;2.22;1.13;;;17.60;78.40;;;;;;4947517;28;99453;-57
2021/04/24 00:21:16;;;;;;;2.33;1.45;;;17.60;78.30;;;;;;4940536;28;95783;-53
2021/04/24 00:23:47;;;;;;;3.25;1.70;;;17.50;78.20;;;;;;4929804;28;101343;-51
2021/04/24 00:26:18;;;;;;;2.03;1.10;;;17.60;78.40;;;;;;4934998;28;95837;-50
2021/04/24 00:28:51;;;;;;;2.90;1.50;;;17.50;78.40;;;;;;4941071;28;95918;-52
2021/04/24 00:31:20;;;;;;;2.05;1.25;;;17.50;78.30;;;;;;4932120;28;95903;-53
2021/04/24 00:33:51;;;;;;;1.67;1.08;;;17.50;78.30;;;;;;4934914;28;97033;-51
2021/04/24 00:36:21;;;;;;;1.63;0.90;;;17.50;78.30;;;;;;4931964;28;97707;-50
2021/04/24 00:38:51;;;;;;;3.63;1.42;;;17.50;78.30;;;;;;4929323;28;95290;-49
2021/04/24 00:41:20;;;;;;;3.17;1.17;;;17.50;78.40;;;;;;4930167;28;95942;-52
2021/04/24 00:43:51;;;;;;;3.45;1.25;;;17.60;78.20;;;;;;4930033;28;95770;-54
2021/04/24 00:46:21;;;;;;;1.95;1.20;;;17.70;78.10;;;;;;4932202;28;95870;-51
2021/04/24 00:48:51;;;;;;;3.53;1.97;;;17.70;78.20;;;;;;4937009;28;95309;-51
2021/04/24 00:51:20;;;;;;;2.72;1.35;;;17.70;78.10;;;;;;4931423;28;95392;-49
2021/04/24 00:53:50;;;;;;;1.45;0.93;;;17.70;78.10;;;;;;4931518;28;95578;-50
2021/04/24 00:56:19;;;;;;;2.72;1.20;;;17.70;78.00;;;;;;4936600;28;96013;-52
2021/04/24 00:58:49;;;;;;;3.88;2.33;;;17.80;78.00;;;;;;4934141;28;96084;-55
2021/04/24 01:01:22;;;;;;;4.18;1.50;;;17.80;77.90;;;;;;4925893;28;95365;-56
2021/04/24 01:03:54;;;;;;;1.92;0.90;;;17.80;77.70;;;;;;4932429;28;95225;-51
2021/04/24 01:06:24;;;;;;;1.55;1.10;;;17.80;77.70;;;;;;4936099;28;96535;-53
2021/04/24 01:08:54;;;;;;;2.03;1.33;;;17.80;77.60;;;;;;4929652;28;95520;-55
2021/04/24 01:11:25;;;;;;;3.35;1.58;;;17.80;77.60;;;;;;4931559;28;99519;-55
2021/04/24 01:13:55;;;;;;;1.80;1.10;;;17.80;77.60;;;;;;4930088;28;95383;-49
2021/04/24 01:16:25;;;;;;;3.17;1.90;;;17.70;77.50;;;;;;4924733;28;98262;-52
2021/04/24 01:18:55;;;;;;;1.98;1.23;;;17.70;77.50;;;;;;4930664;28;95746;-52
2021/04/24 01:21:29;;;;;;;2.28;1.40;;;17.70;77.40;;;;;;4933612;28;95719;-52
2021/04/24 01:23:59;;;;;;;1.52;1.08;;;17.70;77.60;;;;;;4931299;28;95604;-53
2021/04/24 01:26:30;;;;;;;3.10;1.17;;;17.70;77.40;;;;;;4927975;28;97431;-52
2021/04/24 01:29:02;;;;;;;2.63;0.98;;;17.70;77.40;;;;;;4928599;28;95450;-56
2021/04/24 01:31:39;;;;;;;2.40;1.10;;;17.70;77.30;;;;;;4924175;28;95908;-52
2021/04/24 01:34:09;;;;;;;0.90;0.90;;;17.70;77.40;;;;;;4929882;28;95620;-51
2021/04/24 01:36:40;;;;;;;2.88;1.17;;;17.70;77.30;;;;;;4934511;28;96739;-51
2021/04/24 01:39:10;;;;;;;2.50;0.80;;;17.70;77.40;;;;;;4930833;28;95818;-51
2021/04/24 01:41:40;;;;;;;2.45;0.98;;;17.70;77.30;;;;;;4928063;28;95745;-56
2021/04/24 01:44:11;;;;;;;0.85;0.60;;;17.70;77.20;;;;;;4934952;28;95889;-54
2021/04/24 01:46:40;;;;;;;1.80;0.90;;;17.70;77.30;;;;;;4923809;28;95933;-51
2021/04/24 01:49:11;;;;;;;1.80;0.80;;;17.70;77.20;;;;;;4928834;28;95945;-52
2021/04/24 01:51:42;;;;;;;1.38;1.00;;;17.70;77.30;;;;;;4929203;28;95770;-54
2021/04/24 01:54:12;;;;;;;2.23;1.13;;;17.70;77.10;;;;;;4931197;28;98927;-54
2021/04/24 01:56:49;;;;;;;1.35;1.02;;;17.70;77.10;;;;;;4928484;28;96971;-50
2021/04/24 01:59:21;;;;;;;3.65;1.30;;;17.70;77.20;;;;;;4930522;28;95797;-50
2021/04/24 02:01:54;;;;;;;2.17;0.90;;;17.70;77.10;;;;;;4933965;28;96056;-50
2021/04/24 02:04:26;;;;;;;1.20;0.90;;;17.70;77.20;;;;;;4929507;28;95777;-51
2021/04/24 02:06:57;;;;;;;1.55;1.10;;;17.70;77.70;;;;;;4929095;28;96048;-54
2021/04/24 02:09:28;;;;;;;1.92;0.88;;;17.70;77.10;;;;;;4930769;28;95627;-51
2021/04/24 02:12:09;;;;;;;0.85;0.70;;;17.70;76.90;;;;;;4930832;28;96158;-55
2021/04/24 02:14:43;;;;;;;1.70;0.73;;;17.70;77.00;;;;;;4961754;28;95696;-50
2021/04/24 02:17:19;;;;;;;2.85;1.02;;;17.70;77.00;;;;;;4925317;28;96064;-56
2021/04/24 02:19:52;;;;;;;2.53;1.38;;;17.80;77.70;;;;;;4930492;28;95345;-54
2021/04/24 02:22:23;;;;;;;2.35;0.90;;;17.70;77.00;;;;;;4948485;28;95342;-55
2021/04/24 02:25:00;;;;;;;2.00;1.38;;;17.70;77.10;;;;;;4932803;28;96012;-51
2021/04/24 02:27:31;;;;;;;1.38;0.93;;;17.70;77.00;;;;;;4933750;28;95962;-54
2021/04/24 02:30:01;;;;;;;2.75;0.90;;;17.70;77.00;;;;;;4932682;28;95526;-51
2021/04/24 02:32:32;;;;;;;2.65;0.80;;;17.70;77.10;;;;;;4930727;28;95815;-53
2021/04/24 02:35:04;;;;;;;0.70;0.70;;;17.70;77.10;;;;;;4927613;28;95754;-51
2021/04/24 02:37:37;;;;;;;1.83;0.90;;;17.80;77.10;;;;;;4959251;28;98309;-50
2021/04/24 02:40:13;;;;;;;1.20;1.10;;;17.80;77.10;;;;;;4927730;28;95835;-52
2021/04/24 02:42:44;;;;;;;0.95;0.80;;;17.80;77.00;;;;;;4932314;28;95724;-51
2021/04/24 02:45:15;;;;;;;1.35;1.00;;;17.80;77.00;;;;;;4927600;28;95713;-51
2021/04/24 02:47:46;;;;;;;1.70;0.80;;;17.80;76.90;;;;;;4929490;28;102266;-53
2021/04/24 02:50:19;;;;;;;1.00;0.87;;;17.90;77.00;;;;;;4959384;28;96079;-50
2021/04/24 02:52:49;;;;;;;1.27;0.98;;;17.90;76.90;;;;;;4928786;28;95828;-49
2021/04/24 02:55:18;;;;;;;0.82;0.70;;;17.90;77.00;;;;;;4925412;28;96075;-60
2021/04/24 02:57:49;;;;;;;2.90;0.80;;;17.90;76.90;;;;;;4939306;28;95871;-53
2021/04/24 03:00:21;;;;;;;2.67;0.90;;;17.90;76.80;;;;;;4925441;28;96040;-50
2021/04/24 03:03:01;;;;;;;;;;;17.90;76.80;;;;;;4933195;28;95872;-52
2021/04/24 03:05:32;;;;;;;1.33;0.82;;;18.00;76.70;;;;;;4938757;28;95214;-56
2021/04/24 03:08:05;;;;;;;1.15;0.90;;;18.00;76.70;;;;;;4930165;28;96040;-50
2021/04/24 03:10:40;;;;;;;1.27;0.75;;;18.00;76.60;;;;;;4927903;28;95696;-55
2021/04/24 03:13:12;;;;;;;1.55;0.80;;;18.00;77.20;;;;;;4927964;28;95597;-57
2021/04/24 03:15:43;;;;;;;1.85;0.70;;;18.00;76.50;;;;;;4925564;28;95650;-56
2021/04/24 03:18:13;;;;;;;0.82;0.82;;;18.00;76.50;;;;;;4958922;28;97356;-51
2021/04/24 03:20:43;;;;;;;1.05;0.80;;;17.90;76.50;;;;;;4930991;28;96006;-54
2021/04/24 03:23:15;;;;;;;1.75;0.90;;;17.90;76.60;;;;;;4943173;28;95798;-56
2021/04/24 03:25:47;;;;;;;0.88;0.60;;;18.00;76.60;;;;;;4927920;28;95657;-55
2021/04/24 03:28:17;;;;;;;1.45;1.00;;;18.00;76.60;;;;;;4926995;28;103753;-53
2021/04/24 03:30:46;;;;;;;1.85;1.20;;;17.90;76.50;;;;;;4928619;28;95531;-52
2021/04/24 03:33:16;;;;;;;2.33;0.80;;;17.90;76.50;;;;;;4934097;28;95338;-53
2021/04/24 03:35:47;;;;;;;1.27;0.73;;;17.90;76.40;;;;;;4932872;28;95718;-50
2021/04/24 03:38:17;;;;;;;0.75;0.60;;;17.90;76.50;;;;;;4929955;28;96386;-56
2021/04/24 03:40:47;;;;;;;1.13;0.63;;;18.00;76.60;;;;;;4936160;28;95933;-56
2021/04/24 03:43:17;;;;;;;0.75;0.70;;;17.90;76.40;;;;;;4938160;28;95819;-52
2021/04/24 03:45:47;;;;;;;1.98;0.80;;;17.90;76.30;;;;;;4937893;28;95734;-53
2021/04/24 03:48:19;;;;;;;0.88;0.50;;;17.90;76.40;;;;;;4932665;28;95870;-52
2021/04/24 03:50:48;;;;;;;1.05;0.73;;;17.90;76.30;;;;;;4935053;28;95383;-55
2021/04/24 03:53:18;;;;;;;1.23;0.77;;;17.90;76.40;;;;;;4932756;28;95385;-53
2021/04/24 03:55:48;;;;;;;0.88;0.88;;;17.90;76.40;;;;;;4931156;28;96779;-54
2021/04/24 03:58:19;;;;;;;0.93;0.87;;;17.90;76.40;;;;;;4938988;28;98006;-53
2021/04/24 04:00:50;;;;;;;1.38;0.68;;;17.90;76.30;;;;;;4936752;28;95766;-53
2021/04/24 04:03:21;;;;;;;0.88;0.70;;;17.90;76.40;;;;;;4934529;28;95744;-52
2021/04/24 04:05:51;;;;;;;1.80;0.93;;;18.00;76.40;;;;;;4948639;28;95901;-55
2021/04/24 04:08:21;;;;;;;0.80;0.68;;;17.90;76.40;;;;;;4933420;28;95981;-54
2021/04/24 04:10:54;;;;;;;2.10;0.77;;;17.90;76.40;;;;;;4938037;28;98484;-56
2021/04/24 04:13:25;;;;;;;0.68;0.68;;;17.90;76.40;;;;;;4934681;28;95374;-55
2021/04/24 04:15:57;;;;;;;1.90;0.85;;;17.90;76.40;;;;;;4968771;28;95530;-51
2021/04/24 04:18:28;;;;;;;1.63;0.90;;;18.00;76.40;;;;;;4974588;28;95953;-54
2021/04/24 04:20:58;;;;;;;1.67;0.98;;;17.90;76.40;;;;;;4990799;28;95604;-57
2021/04/24 04:23:30;;;;;;;1.00;0.88;;;18.00;76.40;;;;;;4995209;28;95843;-57
2021/04/24 04:26:00;;;;;;;0.82;0.82;;;17.90;76.30;;;;;;4998690;28;95881;-54
2021/04/24 04:28:31;;;;;;;0.85;0.82;;;18.00;76.40;;;;;;4991955;28;95930;-52
2021/04/24 04:31:01;;;;;;;1.93;0.90;;;18.00;76.40;;;;;;4976334;28;97564;-52
2021/04/24 04:33:33;;;;;;;1.38;0.90;;;17.90;76.40;;;;;;4971652;28;95874;-53
2021/04/24 04:36:05;;;;;;;2.88;0.90;;;17.90;76.40;;;;;;4996977;28;95910;-52
2021/04/24 04:38:37;;;;;;;0.80;0.55;;;17.90;76.30;;;;;;4979843;28;96225;-55
2021/04/24 04:41:08;;;;;;;1.05;0.73;;;18.00;76.60;;;;;;4989948;28;96595;-53
2021/04/24 04:43:39;;;;;;;1.67;0.80;;;18.00;76.30;;;;;;4967847;28;95566;-51
2021/04/24 04:46:09;;;;;;;3.60;0.98;;;18.00;76.30;;;;;;4988670;28;95358;-54
2021/04/24 04:48:38;;;;;;;0.90;0.70;;;18.10;76.30;;;;;;4987360;28;95887;-55
2021/04/24 04:51:09;;;;;;;1.17;0.85;;;18.10;76.30;;;;;;4985457;28;96345;-55
2021/04/24 04:53:39;;;;;;;0.80;0.70;;;18.30;75.80;;;;;;4968150;28;95998;-58
2021/04/24 04:56:14;;;;;;;0.70;0.70;;;18.30;75.50;;;;;;4987634;28;95913;-57
2021/04/24 04:58:43;;;;;;;0.63;0.63;;;18.40;75.60;;;;;;4974866;28;96282;-52
2021/04/24 05:01:13;;;;;;;1.73;0.77;;;18.50;75.60;;;;;;4986284;28;96311;-58
2021/04/24 05:03:47;;;;;;;0.90;0.80;;;18.50;75.60;;;;;;4987981;28;96216;-60
2021/04/24 05:06:17;;;;;;;0.85;0.70;;;18.60;75.70;;;;;;4986683;28;95957;-59
2021/04/24 05:08:51;;;;;;;1.65;0.60;;;18.70;75.80;;;;;;4985894;28;96386;-57
2021/04/24 05:11:21;;;;;;;1.50;0.80;;;18.70;75.80;;;;;;4985717;28;95957;-57
2021/04/24 05:13:53;;;;;;;1.85;1.08;;;18.80;76.00;;;;;;4986843;28;95636;-57
2021/04/24 05:16:22;;;;;;;;;;;18.90;75.80;;;;;;4983838;28;95759;-55
2021/04/24 05:18:52;;;;;;;2.95;1.20;;;18.90;75.80;;;;;;4988641;28;95836;-59
2021/04/24 05:21:22;;;;;;;2.10;0.80;;;18.90;75.70;;;;;;4992638;28;95896;-58
2021/04/24 05:23:54;;;;;;;5.90;1.08;;;18.90;75.60;;;;;;4985856;28;95902;-55
2021/04/24 05:26:24;;;;;;;1.30;0.80;;;18.90;76.20;;;;;;4986493;28;100695;-55
2021/04/24 05:28:55;;;;;;;1.48;0.90;;;19.00;75.50;;;;;;4986808;28;95837;-57
2021/04/24 05:31:26;;;;;;;1.17;0.85;;;19.00;75.20;;;;;;4986351;28;95809;-57
2021/04/24 05:33:57;;;;;;;0.77;0.75;;;19.10;75.00;;;;;;4990936;28;96060;-57
2021/04/24 05:36:27;;;;;;;;;;;19.10;74.90;;;;;;4986099;28;95368;-53
2021/04/24 05:38:58;;;;;;;3.33;1.00;;;19.20;74.80;;;;;;4990521;28;96580;-56
2021/04/24 05:41:29;;;;;;;1.40;0.70;;;19.20;74.50;;;;;;4983631;28;96098;-56
2021/04/24 05:44:00;;;;;;;0.75;0.60;;;19.20;74.40;;;;;;5004631;28;95751;-56
2021/04/24 05:46:30;;;;;;;1.27;0.65;;;19.20;74.30;;;;;;4987917;28;95793;-56
2021/04/24 05:49:00;;;;;;;1.23;0.90;;;19.30;74.20;;;;;;4989460;28;96758;-58
2021/04/24 05:51:32;;;;;;;1.95;0.88;;;19.30;74.70;;;;;;4984871;28;95746;-54
2021/04/24 05:54:02;;;;;;;2.75;1.00;;;19.30;74.00;;;;;;4986742;28;95884;-58
2021/04/24 05:56:32;;;;;;;0.65;0.63;;;19.40;73.90;;;;;;4984621;28;95633;-57
2021/04/24 05:59:01;;;;;;;0.93;0.90;;;19.40;73.80;;;;;;4983982;28;99640;-58
2021/04/24 06:01:30;;;;;;;1.13;0.95;;;19.50;73.80;;;;;;4982522;28;95658;-60
2021/04/24 06:04:02;;;;;;;0.97;0.80;;;19.40;73.70;;;;;;4984129;28;95577;-56
2021/04/24 06:06:32;;;;;;;0.60;0.60;;;19.50;73.60;;;;;;4986439;28;95662;-55
2021/04/24 06:09:03;;;;;;;1.17;1.08;;;19.50;73.50;;;;;;4986206;28;95846;-53
2021/04/24 06:11:34;;;;;;;1.00;0.90;;;19.50;73.50;;;;;;4985834;28;95889;-56
2021/04/24 06:14:06;;;;;;;3.28;1.30;;;19.60;73.90;;;;;;4982861;28;96158;-57
2021/04/24 06:16:38;;;;;;;2.20;1.60;;;19.60;73.90;;;;;;4987320;28;95916;-57
2021/04/24 06:19:09;;;;;;;2.92;1.92;;;19.60;74.00;;;;;;4984910;28;95926;-58
2021/04/24 06:21:41;;;;;;;2.28;1.40;;;19.60;74.00;;;;;;4987401;28;95894;-57
2021/04/24 06:24:12;;;;;;;3.13;1.33;;;19.50;74.00;;;;;;4987901;28;95988;-56
2021/04/24 06:26:43;;;;;;;3.17;1.48;;;19.50;74.20;;;;;;4995830;28;96044;-58
2021/04/24 06:29:15;;;;;;;4.03;1.65;;;19.40;74.50;;;;;;4997201;28;96088;-53
2021/04/24 06:31:45;;;;;;;4.82;2.00;;;19.40;74.70;;;;;;4991843;28;95360;-55
2021/04/24 06:34:15;;;;;;;4.93;2.10;;;19.50;74.60;;;;;;5004166;28;96175;-56
2021/04/24 06:36:46;;;;;;;3.37;1.97;;;19.40;74.50;;;;;;4996291;28;95922;-54
2021/04/24 06:39:17;;;;;;;5.18;2.55;;;19.40;75.40;;;;;;4979781;28;98615;-56
2021/04/24 06:41:49;;;;;;;4.68;2.88;;;19.40;74.60;;;;;;4997311;28;95792;-58
2021/04/24 06:44:20;;;;;;;7.53;2.67;;;19.50;74.70;;;;;;4998576;28;95707;-58
2021/04/24 06:46:50;;;;;;;3.88;3.20;;;19.40;74.80;;;;;;4980450;28;95778;-58
2021/04/24 06:49:19;;;;;;;4.05;2.45;;;19.40;74.90;;;;;;5004634;28;95843;-56
2021/04/24 06:51:48;;;;;;;4.90;2.80;;;19.30;74.80;;;;;;4990176;28;97765;-58
2021/04/24 06:54:20;;;;;;;4.97;3.05;;;19.30;74.90;;;;;;4991988;28;98122;-58
2021/04/24 06:56:50;;;;;;;6.67;3.40;;;19.20;74.90;;;;;;4987511;28;95795;-56
2021/04/24 06:59:20;;;;;;;5.72;3.97;;;19.20;74.80;;;;;;4990680;28;96558;-59
2021/04/24 07:01:52;;;;;;;6.60;4.07;;;19.20;74.90;;;;;;4989636;28;96243;-58
2021/04/24 07:04:22;;;;;;;8.05;4.47;;;19.10;75.00;;;;;;4992420;28;95605;-56
2021/04/24 07:06:52;;;;;;;7.47;4.30;;;19.10;75.00;;;;;;4985801;28;95954;-55
2021/04/24 07:09:23;;;;;;;7.13;3.85;;;19.10;75.20;;;;;;5001922;28;96853;-61
2021/04/24 07:11:53;;;;;;;9.20;4.28;;;19.20;75.10;;;;;;5001565;28;96067;-56
2021/04/24 07:14:24;;;;;;;9.32;4.35;;;19.20;75.00;;;;;;5004906;28;95680;-55
2021/04/24 07:16:54;;;;;;;8.20;3.13;;;19.20;74.90;;;;;;4999778;28;96014;-57
2021/04/24 07:19:25;;;;;;;5.70;3.30;;;19.20;74.90;;;;;;5002352;28;96777;-57
2021/04/24 07:21:57;;;;;;;7.25;4.55;;;19.30;74.60;;;;;;4998119;28;95938;-58
2021/04/24 07:24:27;;;;;;;5.55;3.75;;;19.30;74.40;;;;;;5002544;28;96094;-57
2021/04/24 07:26:58;;;;;;;5.63;3.47;;;19.30;73.90;;;;;;5005030;28;95907;-58
2021/04/24 07:29:29;;;;;;;9.15;3.25;;;19.30;73.40;;;;;;4982675;28;96844;-59
2021/04/24 07:31:59;;;;;;;4.70;3.15;;;19.30;73.50;;;;;;4997051;27;95776;-59
2021/04/24 07:34:29;;;;;;;8.55;4.00;;;19.10;73.80;;;;;;4993466;28;95942;-57
2021/04/24 07:37:01;;;;;;;5.03;3.60;;;19.10;73.90;;;;;;4988339;28;95808;-58
2021/04/24 07:39:33;;;;;;;6.40;3.85;;;19.10;74.10;;;;;;4986511;28;96372;-58
2021/04/24 07:42:05;;;;;;;4.97;3.08;;;19.10;74.20;;;;;;4991136;28;95573;-58
2021/04/24 07:44:37;;;;;;;7.25;3.72;;;19.10;74.30;;;;;;4987756;28;95797;-56
2021/04/24 07:47:09;;;;;;;7.47;4.80;;;19.00;74.30;;;;;;5002793;27;95783;-58
2021/04/24 07:49:39;;;;;;;5.72;3.15;;;19.00;74.40;;;;;;4988142;28;95864;-56
2021/04/24 07:52:10;;;;;;;7.10;3.90;;;19.00;74.40;;;;;;4987720;28;95647;-59
2021/04/24 07:54:42;;;;;;;7.80;3.47;;;19.00;74.60;;;;;;4986006;28;95955;-56
2021/04/24 07:57:13;;;;;;;6.72;3.70;;;18.90;74.70;;;;;;4953564;28;95854;-59
2021/04/24 07:59:44;;;;;;;7.23;3.50;;;18.90;74.60;;;;;;4987610;28;95908;-58
2021/04/24 08:02:14;;;;;;;5.55;3.75;;;18.90;74.60;;;;;;4987324;27;96046;-56
2021/04/24 08:04:45;;;;;;;;;;;18.90;74.80;;;;;;4992050;28;95796;-60
2021/04/24 08:07:15;;;;;;;5.20;3.00;;;18.90;74.80;;;;;;4992670;28;95862;-55
2021/04/24 08:09:46;;;;;;;5.65;3.80;;;18.90;74.90;;;;;;4987261;28;95923;-57
2021/04/24 08:12:17;;;;;;;6.07;3.70;;;18.80;74.90;;;;;;4989781;28;95681;-54
2021/04/24 08:14:48;;;;;;;5.57;3.72;;;18.80;74.90;;;;;;4989179;28;95890;-57
2021/04/24 08:17:19;;;;;;;6.05;4.20;;;18.80;74.90;;;;;;4985447;28;95785;-55
2021/04/24 08:19:50;;;;;;;7.35;3.50;;;18.80;74.90;;;;;;4989915;28;96727;-55
2021/04/24 08:22:20;;;;;;;6.00;4.13;;;18.80;75.00;;;;;;4988512;28;95266;-57
2021/04/24 08:24:51;;;;;;;7.70;4.55;;;18.80;74.60;;;;;;5001342;27;96104;-56
2021/04/24 08:27:21;;;;;;;6.70;4.57;;;18.90;74.10;;;;;;4987170;28;95691;-57
2021/04/24 08:29:52;;;;;;;8.10;4.60;;;19.00;74.00;;;;;;4990325;28;95920;-58
2021/04/24 08:32:22;;;;;;;9.70;6.13;;;19.10;73.60;;;;;;4985608;28;95989;-55
2021/04/24 08:34:52;;;;;;;6.80;4.47;;;19.10;73.50;;;;;;4987973;28;95974;-57
2021/04/24 08:37:24;;;;;;;6.03;3.97;;;19.20;73.50;;;;;;4975264;28;95544;-56
2021/04/24 08:39:55;;;;;;;4.55;3.88;;;19.20;73.60;;;;;;4993622;28;96825;-56
2021/04/24 08:42:25;;;;;;;5.65;3.90;;;19.10;73.70;;;;;;4991436;28;95833;-56
2021/04/24 08:44:55;;;;;;;6.88;4.07;;;19.10;73.80;;;;;;4988083;28;95629;-56
2021/04/24 08:47:25;;;;;;;11.95;5.10;;;19.10;73.90;;;;;;4966448;28;95654;-57
2021/04/24 08:49:55;;;;;;;6.73;4.90;;;19.10;74.10;;;;;;4988000;28;95955;-57
2021/04/24 08:52:24;;;;;;;9.93;4.65;;;19.00;74.00;;;;;;4980513;28;103705;-54
2021/04/24 08:54:54;;;;;;;6.40;4.43;;;19.00;74.20;;;;;;4985550;28;95866;-54
2021/04/24 08:57:23;;;;;;;6.82;4.38;;;19.00;74.10;;;;;;4993550;28;95972;-56
2021/04/24 08:59:53;;;;;;;6.10;4.38;;;19.00;74.10;;;;;;4986239;28;95847;-59
2021/04/24 09:02:23;;;;;;;5.03;3.97;;;19.00;74.10;;;;;;4986895;28;95387;-55
2021/04/24 09:04:55;;;;;;;5.28;3.92;;;19.00;74.20;;;;;;4986925;28;95729;-53
2021/04/24 09:07:27;;;;;;;7.23;4.83;;;19.00;74.20;;;;;;4970453;28;97634;-57
2021/04/24 09:09:59;;;;;;;7.38;4.40;;;18.90;74.20;;;;;;4987551;28;96034;-57
2021/04/24 09:12:40;;;;;;;7.30;4.65;;;18.90;74.30;;;;;;4984772;28;95817;-56
2021/04/24 09:15:26;;;;;;;5.05;4.30;;;18.90;74.40;;;;;;4984319;28;95959;-57
2021/04/24 09:18:02;;;;;;;8.98;4.30;;;18.90;74.50;;;;;;4982649;28;95808;-57
2021/04/24 09:20:56;;;;;;;6.25;4.15;;;18.90;74.60;;;;;;4987806;28;96418;-56
2021/04/24 09:23:35;;;;;;;8.52;4.60;;;18.90;74.80;;;;;;4992212;28;95654;-57
2021/04/24 09:26:14;;;;;;;6.90;4.82;;;18.80;74.90;;;;;;4989496;28;95572;-56
2021/04/24 09:28:48;;;;;;;7.30;4.88;;;18.70;75.00;;;;;;4988001;28;95701;-58
2021/04/24 09:31:27;;;;;;;6.45;4.80;;;18.70;75.40;;;;;;4976772;28;96709;-56
2021/04/24 09:33:59;;;;;;;10.40;5.05;;;18.60;75.60;;;;;;4969300;28;95725;-55
2021/04/24 09:36:39;;;;;;;10.43;5.75;;;18.60;75.90;;;;;;4988391;28;95528;-55
2021/04/24 09:39:10;;;;;;;9.00;4.70;;;18.60;76.40;;;;;;4991752;28;95893;-56
2021/04/24 09:41:41;;;;;;;9.60;4.93;;;18.60;76.40;;;;;;4980407;28;96995;-55
2021/04/24 09:44:16;;;;;;;7.82;5.03;;;18.50;76.40;;;;;;4970756;28;95705;-52
2021/04/24 09:46:49;;;;;;;6.60;3.83;;;18.50;77.10;;;;;;4985114;28;95554;-56
2021/04/24 09:49:29;;;;;;;9.43;4.90;;;18.50;76.90;;;;;;4996142;28;95759;-55
2021/04/24 09:52:03;;;;;;;9.60;5.28;;;18.60;76.20;;;;;;4987010;28;95929;-55
2021/04/24 09:54:43;;;;;;;6.60;4.93;;;18.60;76.10;;;;;;4998090;28;95908;-56
2021/04/24 09:57:20;;;;;;;9.18;5.28;;;18.60;75.90;;;;;;4993809;28;97432;-54
2021/04/24 10:00:02;;;;;;;8.50;4.82;;;18.60;75.80;;;;;;4989113;28;95398;-54
2021/04/24 10:02:45;;;;;;;5.88;4.38;;;18.80;76.40;;;;;;4988482;28;102198;-57
2021/04/24 10:05:18;;;;;;;8.73;4.47;;;18.80;76.60;;;;;;4970426;28;96377;-50
2021/04/24 10:07:50;;;;;;;10.15;4.40;;;18.70;76.60;;;;;;4986066;28;95676;-50
2021/04/24 10:10:32;;;;;;;10.80;5.43;;;18.70;76.40;;;;;;4988118;28;95668;-56
2021/04/24 10:13:08;;;;;;;5.82;4.32;;;18.70;76.30;;;;;;4968390;28;98171;-54
2021/04/24 10:15:45;;;;;;;6.40;4.50;;;18.70;76.40;;;;;;4983980;28;97900;-52
2021/04/24 10:18:18;;;;;;;5.28;3.97;;;18.60;76.40;;;;;;4990082;28;102389;-54
2021/04/24 10:20:48;;;;;;;7.22;4.05;;;18.60;76.50;;;;;;4988861;28;95853;-56
2021/04/24 10:23:19;;;;;;;7.15;4.72;;;18.50;76.40;;;;;;4985565;28;95918;-52
2021/04/24 10:25:51;;;;;;;7.33;5.00;;;18.50;76.60;;;;;;4990576;28;95435;-53
2021/04/24 10:28:22;;;;;;;7.32;5.15;;;18.50;76.50;;;;;;4998085;28;98701;-55
2021/04/24 10:30:53;;;;;;;9.07;5.13;;;18.50;76.50;;;;;;4994919;28;95754;-54
2021/04/24 10:33:24;;;;;;;7.15;4.28;;;18.50;76.60;;;;;;4991054;28;95856;-51
2021/04/24 10:35:56;;;;;;;7.80;4.97;;;18.40;76.60;;;;;;4992304;28;95711;-52
2021/04/24 10:38:31;;;;;;;6.22;4.35;;;18.40;76.60;;;;;;4985822;28;96003;-55
2021/04/24 10:41:03;;;;;;;7.13;4.05;;;18.40;76.60;;;;;;4970879;28;95780;-54
2021/04/24 10:43:33;;;;;;;5.95;4.57;;;18.40;76.70;;;;;;4986346;28;95891;-57
2021/04/24 10:46:25;;;;;;;5.40;4.05;;;18.40;76.60;;;;;;4996805;28;96259;-53
2021/04/24 10:49:28;;;;;;;5.63;3.83;;;18.40;76.80;;;;;;4995511;28;95621;-54
2021/04/24 10:52:23;;;;;;;5.72;4.20;;;18.40;77.20;;;;;;4992259;28;95214;-57
2021/04/24 10:55:15;;;;;;;6.22;4.20;;;18.30;77.30;;;;;;4992473;28;95976;-51
2021/04/24 10:57:51;;;;;;;6.18;3.97;;;18.30;77.40;;;;;;4990309;28;96854;-57
2021/04/24 11:00:33;;;;;;;5.30;4.20;;;18.20;77.30;;;;;;4986826;28;96309;-50
2021/04/24 11:03:06;;;;;;;6.93;3.90;;;18.20;77.40;;;;;;4993054;28;96044;-56
2021/04/24 11:05:44;;;;;;;7.18;4.60;;;18.20;77.30;;;;;;4991931;28;96321;-57
2021/04/24 11:08:21;;;;;;;6.38;5.10;;;18.20;77.50;;;;;;5009646;28;96362;-57
2021/04/24 11:11:02;;;;;;;8.85;4.97;;;18.10;77.40;;;;;;4993471;28;96036;-57
2021/04/24 11:13:56;;;;;;;6.47;4.35;;;18.10;77.20;;;;;;4990835;28;95431;-57
2021/04/24 11:16:32;;;;;;;6.90;4.00;;;18.10;77.30;;;;;;4987396;28;95899;-57
2021/04/24 11:19:05;;;;;;;5.78;3.97;;;18.00;77.30;;;;;;4996901;28;97238;-57
2021/04/24 11:21:36;;;;;;;4.75;3.97;;;18.00;77.40;;;;;;4991397;28;95591;-58
2021/04/24 11:24:16;;;;;;;7.23;4.20;;;18.00;77.40;;;;;;4973795;28;96022;-56
2021/04/24 11:26:48;;;;;;;4.97;4.22;;;18.00;77.40;;;;;;4989841;28;96633;-56
2021/04/24 11:29:37;;;;;;;5.85;4.38;;;17.90;77.40;;;;;;4992058;28;97287;-56
2021/04/24 11:32:19;;;;;;;5.10;3.65;;;17.90;77.50;;;;;;4987910;28;95969;-56
2021/04/24 11:34:50;;;;;;;7.10;4.40;;;17.90;77.40;;;;;;4992677;28;95789;-56
2021/04/24 11:37:23;;;;;;;7.30;3.83;;;17.90;77.30;;;;;;4992283;28;96046;-54
2021/04/24 11:40:10;;;;;;;4.88;3.67;;;17.90;77.20;;;;;;4990964;28;95934;-53
2021/04/24 11:43:11;;;;;;;6.97;4.70;;;17.80;77.20;;;;;;4990681;28;95753;-56
2021/04/24 11:45:59;;;;;;;7.67;5.33;;;17.80;77.40;;;;;;4989380;28;96254;-56
2021/04/24 11:48:47;;;;;;;10.18;5.53;;;17.80;77.60;;;;;;4987318;28;95863;-55
2021/04/24 11:51:53;;;;;;;7.72;5.25;;;17.80;77.70;;;;;;4990511;28;95623;-53
2021/04/24 11:54:32;;;;;;;5.78;4.20;;;17.80;77.70;;;;;;4970470;28;95792;-52
2021/04/24 11:57:03;;;;;;;8.20;5.15;;;17.70;77.60;;;;;;4991013;28;95717;-55
2021/04/24 11:59:35;;;;;;;7.07;5.25;;;17.70;77.60;;;;;;4991668;28;96015;-53
2021/04/24 12:02:33;;;;;;;8.02;5.07;;;17.70;77.50;;;;;;4992036;28;95811;-55
2021/04/24 12:05:09;;;;;;;10.52;5.32;;;17.60;77.50;;;;;;4986887;28;95862;-56
2021/04/24 12:07:42;;;;;;;7.47;5.25;;;17.60;77.60;;;;;;4990146;28;95818;-54
2021/04/24 12:10:13;;;;;;;10.63;5.57;;;17.60;77.60;;;;;;4971958;28;96055;-56
2021/04/24 12:12:47;;;;;;;9.05;5.20;;;17.50;77.60;;;;;;4998640;28;95629;-56
2021/04/24 12:15:25;;;;;;;9.45;5.90;;;17.50;77.50;;;;;;4991787;28;95759;-56
2021/04/24 12:17:59;;;;;;;9.57;5.95;;;17.50;77.50;;;;;;4990103;28;95336;-54
2021/04/24 12:20:43;;;;;;;10.35;6.47;;;17.50;77.50;;;;;;4988232;28;95974;-56
2021/04/24 12:23:17;;;;;;;9.18;5.55;;;17.50;77.50;;;;;;4988846;28;95754;-56
2021/04/24 12:25:50;;;;;;;9.52;5.35;;;17.40;77.50;;;;;;4973179;28;95477;-57
2021/04/24 12:28:22;;;;;;;7.20;5.57;;;17.40;77.50;;;;;;4972870;28;95837;-57
2021/04/24 12:30:54;;;;;;;9.15;5.88;;;17.40;77.60;;;;;;4994429;27;96407;-56
2021/04/24 12:33:25;;;;;;;10.55;5.40;;;17.40;77.60;;;;;;5005022;27;98773;-54
2021/04/24 12:36:03;;;;;;;7.43;5.72;;;17.40;77.50;;;;;;4990382;28;95492;-54
2021/04/24 12:38:33;;;;;;;6.15;4.70;;;17.40;77.40;;;;;;4989141;28;95919;-56
2021/04/24 12:41:06;;;;;;;7.70;5.90;;;17.40;77.50;;;;;;4989497;28;95985;-57
2021/04/24 12:43:42;;;;;;;8.43;5.45;;;17.40;77.60;;;;;;4993528;28;96044;-58
2021/04/24 12:46:13;;;;;;;8.75;5.38;;;17.30;78.40;;;;;;4987115;28;95726;-55
2021/04/24 12:48:48;;;;;;;9.20;5.20;;;17.30;77.80;;;;;;5000378;28;95255;-56
2021/04/24 12:51:21;;;;;;;7.40;4.90;;;17.30;77.70;;;;;;4989513;28;95879;-55
2021/04/24 12:53:52;;;;;;;9.10;5.15;;;17.30;77.80;;;;;;4986975;28;96069;-56
2021/04/24 12:56:25;;;;;;;6.38;4.85;;;17.20;77.80;;;;;;4988406;28;97401;-56
2021/04/24 12:59:01;;;;;;;8.23;5.03;;;17.30;77.80;;;;;;4988252;28;102448;-54
2021/04/24 13:01:33;;;;;;;9.95;6.20;;;17.20;77.70;;;;;;4985170;28;95946;-56
2021/04/24 13:04:15;;;;;;;10.65;5.47;;;17.20;77.80;;;;;;4989653;28;95603;-56
2021/04/24 13:07:02;;;;;;;;;;;17.20;77.80;;;;;;4990833;28;95742;-57
2021/04/24 13:09:38;;;;;;;9.77;5.53;;;17.10;77.80;;;;;;4996436;28;95554;-54
2021/04/24 13:12:12;;;;;;;10.02;5.20;;;17.20;77.80;;;;;;4987542;28;95854;-54
2021/04/24 13:14:49;;;;;;;8.80;4.90;;;17.20;77.90;;;;;;4987789;28;95471;-55
2021/04/24 13:17:26;;;;;;;8.40;5.00;;;17.20;77.90;;;;;;4999832;28;95530;-56